sensor_id;sensor_type;location;lat;lon;timestamp;pressure;altitude;pressure_sealevel;temperature;humidity
69214;BME280;56325;47.030;18.518;2023-06-14T00:02:22;100139.22;;;15.01;73.68
69214;BME280;56325;47.030;18.518;2023-06-14T00:04:57;100141.59;;;14.82;74.42
69214;BME280;56325;47.030;18.518;2023-06-14T00:07:38;100141.41;;;14.91;74.00
69214;BME280;56325;47.030;18.518;2023-06-14T00:10:15;100142.47;;;14.99;73.62
69214;BME280;56325;47.030;18.518;2023-06-14T00:12:50;100145.37;;;15.16;73.14
69214;BME280;56325;47.030;18.518;2023-06-14T00:15:25;100133.94;;;15.03;73.48
69214;BME280;56325;47.030;18.518;2023-06-14T00:18:00;100143.06;;;15.09;73.19
69214;BME280;56325;47.030;18.518;2023-06-14T00:20:35;100144.53;;;15.04;73.22
69214;BME280;56325;47.030;18.518;2023-06-14T00:23:12;100148.81;;;15.05;72.96
69214;BME280;56325;47.030;18.518;2023-06-14T00:25:47;100145.16;;;15.20;72.38
69214;BME280;56325;47.030;18.518;2023-06-14T00:28:22;100144.63;;;15.16;72.62
69214;BME280;56325;47.030;18.518;2023-06-14T00:30:57;100145.44;;;15.22;72.13
69214;BME280;56325;47.030;18.518;2023-06-14T00:33:33;100152.97;;;14.90;73.17
69214;BME280;56325;47.030;18.518;2023-06-14T00:36:10;100144.97;;;14.97;73.16
69214;BME280;56325;47.030;18.518;2023-06-14T00:38:46;100150.31;;;15.01;72.99
69214;BME280;56325;47.030;18.518;2023-06-14T00:41:21;100146.03;;;14.74;74.21
69214;BME280;56325;47.030;18.518;2023-06-14T00:43:55;100149.13;;;14.82;73.92
69214;BME280;56325;47.030;18.518;2023-06-14T00:46:31;100143.53;;;14.76;73.93
69214;BME280;56325;47.030;18.518;2023-06-14T00:49:05;100144.94;;;14.60;74.51
69214;BME280;56325;47.030;18.518;2023-06-14T00:51:40;100144.44;;;14.62;74.37
69214;BME280;56325;47.030;18.518;2023-06-14T00:54:17;100138.63;;;14.60;74.83
69214;BME280;56325;47.030;18.518;2023-06-14T00:56:52;100146.56;;;14.72;74.42
69214;BME280;56325;47.030;18.518;2023-06-14T00:59:26;100143.88;;;14.84;73.78
69214;BME280;56325;47.030;18.518;2023-06-14T01:02:01;100141.94;;;14.64;74.58
69214;BME280;56325;47.030;18.518;2023-06-14T01:04:36;100136.75;;;14.77;74.33
69214;BME280;56325;47.030;18.518;2023-06-14T01:07:18;100137.88;;;14.59;74.75
69214;BME280;56325;47.030;18.518;2023-06-14T01:10:12;100136.34;;;14.58;74.67
69214;BME280;56325;47.030;18.518;2023-06-14T01:12:55;100133.59;;;14.58;74.84
69214;BME280;56325;47.030;18.518;2023-06-14T01:15:32;100129.09;;;14.61;74.80
69214;BME280;56325;47.030;18.518;2023-06-14T01:18:07;100129.34;;;14.63;74.59
69214;BME280;56325;47.030;18.518;2023-06-14T01:20:50;100125.84;;;14.62;74.63
69214;BME280;56325;47.030;18.518;2023-06-14T01:23:32;100126.66;;;14.68;74.36
69214;BME280;56325;47.030;18.518;2023-06-14T01:26:07;100126.59;;;14.63;74.35
69214;BME280;56325;47.030;18.518;2023-06-14T01:28:42;100130.44;;;14.71;74.13
69214;BME280;56325;47.030;18.518;2023-06-14T01:31:22;100127.66;;;14.71;73.87
69214;BME280;56325;47.030;18.518;2023-06-14T01:33:58;100128.19;;;14.75;73.55
69214;BME280;56325;47.030;18.518;2023-06-14T01:36:34;100122.34;;;14.67;73.80
69214;BME280;56325;47.030;18.518;2023-06-14T01:39:14;100112.88;;;14.48;74.65
69214;BME280;56325;47.030;18.518;2023-06-14T01:41:49;100122.19;;;14.51;74.34
69214;BME280;56325;47.030;18.518;2023-06-14T01:44:26;100121.81;;;14.63;73.93
69214;BME280;56325;47.030;18.518;2023-06-14T01:47:01;100122.97;;;14.51;74.02
69214;BME280;56325;47.030;18.518;2023-06-14T01:49:38;100133.00;;;14.49;73.67
69214;BME280;56325;47.030;18.518;2023-06-14T01:52:14;100136.03;;;14.51;73.40
69214;BME280;56325;47.030;18.518;2023-06-14T01:54:50;100125.13;;;14.41;73.58
69214;BME280;56325;47.030;18.518;2023-06-14T01:57:25;100122.53;;;14.38;73.90
69214;BME280;56325;47.030;18.518;2023-06-14T02:00:00;100129.69;;;14.45;73.88
69214;BME280;56325;47.030;18.518;2023-06-14T02:02:44;100128.44;;;14.46;73.72
69214;BME280;56325;47.030;18.518;2023-06-14T02:05:20;100132.84;;;14.37;73.89
69214;BME280;56325;47.030;18.518;2023-06-14T02:07:55;100133.78;;;14.08;74.98
69214;BME280;56325;47.030;18.518;2023-06-14T02:10:31;100142.41;;;14.16;74.53
69214;BME280;56325;47.030;18.518;2023-06-14T02:13:08;100145.06;;;14.05;74.71
69214;BME280;56325;47.030;18.518;2023-06-14T02:15:43;100144.91;;;14.14;74.21
69214;BME280;56325;47.030;18.518;2023-06-14T02:18:18;100141.25;;;14.02;74.65
69214;BME280;56325;47.030;18.518;2023-06-14T02:20:53;100141.47;;;13.99;74.94
69214;BME280;56325;47.030;18.518;2023-06-14T02:23:27;100136.78;;;13.85;75.79
69214;BME280;56325;47.030;18.518;2023-06-14T02:26:06;100134.84;;;13.91;75.67
69214;BME280;56325;47.030;18.518;2023-06-14T02:28:40;100138.41;;;13.97;75.47
69214;BME280;56325;47.030;18.518;2023-06-14T02:31:15;100141.81;;;14.06;75.11
69214;BME280;56325;47.030;18.518;2023-06-14T02:33:50;100137.72;;;14.22;74.20
69214;BME280;56325;47.030;18.518;2023-06-14T02:36:25;100147.47;;;14.18;74.11
69214;BME280;56325;47.030;18.518;2023-06-14T02:39:00;100146.16;;;14.13;74.29
69214;BME280;56325;47.030;18.518;2023-06-14T02:41:36;100151.34;;;14.05;74.68
69214;BME280;56325;47.030;18.518;2023-06-14T02:44:12;100146.72;;;14.17;74.46
69214;BME280;56325;47.030;18.518;2023-06-14T02:46:48;100148.78;;;14.02;74.79
69214;BME280;56325;47.030;18.518;2023-06-14T02:49:23;100159.28;;;13.98;75.16
69214;BME280;56325;47.030;18.518;2023-06-14T02:52:00;100158.66;;;13.88;75.51
69214;BME280;56325;47.030;18.518;2023-06-14T02:54:35;100150.72;;;14.16;74.33
69214;BME280;56325;47.030;18.518;2023-06-14T02:57:12;100148.16;;;13.92;74.95
69214;BME280;56325;47.030;18.518;2023-06-14T02:59:47;100156.81;;;13.80;75.60
69214;BME280;56325;47.030;18.518;2023-06-14T03:02:22;100156.38;;;13.87;75.56
69214;BME280;56325;47.030;18.518;2023-06-14T03:04:56;100156.53;;;13.98;74.76
69214;BME280;56325;47.030;18.518;2023-06-14T03:07:35;100151.91;;;13.89;75.29
69214;BME280;56325;47.030;18.518;2023-06-14T03:10:14;100152.53;;;13.99;75.15
69214;BME280;56325;47.030;18.518;2023-06-14T03:12:51;100156.88;;;14.05;74.82
69214;BME280;56325;47.030;18.518;2023-06-14T03:15:26;100154.72;;;14.15;74.58
69214;BME280;56325;47.030;18.518;2023-06-14T03:18:02;100155.91;;;14.08;74.87
69214;BME280;56325;47.030;18.518;2023-06-14T03:20:38;100159.28;;;13.98;75.44
69214;BME280;56325;47.030;18.518;2023-06-14T03:27:22;100163.75;;;14.36;73.69
69214;BME280;56325;47.030;18.518;2023-06-14T03:30:50;100163.28;;;14.37;72.68
69214;BME280;56325;47.030;18.518;2023-06-14T03:34:18;100166.25;;;14.34;72.46
69214;BME280;56325;47.030;18.518;2023-06-14T03:37:45;100174.09;;;14.15;72.79
69214;BME280;56325;47.030;18.518;2023-06-14T04:16:32;100171.84;;;16.95;69.29
69214;BME280;56325;47.030;18.518;2023-06-14T04:19:08;100171.84;;;16.95;69.29
69214;BME280;56325;47.030;18.518;2023-06-14T04:21:42;100169.66;;;16.23;69.67
69214;BME280;56325;47.030;18.518;2023-06-14T04:24:17;100178.66;;;16.01;70.35
69214;BME280;56325;47.030;18.518;2023-06-14T04:26:52;100186.84;;;15.79;69.93
69214;BME280;56325;47.030;18.518;2023-06-14T04:29:27;100181.03;;;15.71;71.20
69214;BME280;56325;47.030;18.518;2023-06-14T04:32:05;100175.75;;;15.73;71.32
69214;BME280;56325;47.030;18.518;2023-06-14T04:34:43;100181.75;;;15.66;71.53
69214;BME280;56325;47.030;18.518;2023-06-14T04:37:18;100174.28;;;15.41;71.90
69214;BME280;56325;47.030;18.518;2023-06-14T04:39:54;100173.94;;;15.28;72.69
69214;BME280;56325;47.030;18.518;2023-06-14T04:42:28;100169.00;;;15.43;72.62
69214;BME280;56325;47.030;18.518;2023-06-14T04:45:07;100174.28;;;15.41;73.29
69214;BME280;56325;47.030;18.518;2023-06-14T04:47:44;100182.87;;;15.49;73.35
69214;BME280;56325;47.030;18.518;2023-06-14T04:50:19;100197.69;;;15.40;73.62
69214;BME280;56325;47.030;18.518;2023-06-14T04:52:54;100204.22;;;15.37;73.63
69214;BME280;56325;47.030;18.518;2023-06-14T04:55:30;100206.91;;;15.57;73.20
69214;BME280;56325;47.030;18.518;2023-06-14T04:58:06;100213.56;;;15.77;72.92
69214;BME280;56325;47.030;18.518;2023-06-14T05:00:41;100219.75;;;16.03;71.84
69214;BME280;56325;47.030;18.518;2023-06-14T05:03:17;100214.75;;;16.13;71.71
69214;BME280;56325;47.030;18.518;2023-06-14T05:05:54;100216.34;;;16.25;71.26
69214;BME280;56325;47.030;18.518;2023-06-14T05:08:28;100222.16;;;16.32;70.28
69214;BME280;56325;47.030;18.518;2023-06-14T05:11:03;100215.38;;;16.39;71.01
69214;BME280;56325;47.030;18.518;2023-06-14T05:13:38;100215.12;;;16.48;70.58
69214;BME280;56325;47.030;18.518;2023-06-14T05:16:15;100211.69;;;17.65;78.65
69214;BME280;56325;47.030;18.518;2023-06-14T05:18:53;100211.25;;;18.30;75.96
69214;BME280;56325;47.030;18.518;2023-06-14T05:21:28;100210.84;;;18.67;73.85
69214;BME280;56325;47.030;18.518;2023-06-14T05:24:03;100216.72;;;18.47;68.24
69214;BME280;56325;47.030;18.518;2023-06-14T05:26:38;100226.81;;;18.03;67.19
69214;BME280;56325;47.030;18.518;2023-06-14T05:29:12;100225.59;;;17.82;68.02
69214;BME280;56325;47.030;18.518;2023-06-14T05:31:47;100214.22;;;17.74;67.89
69214;BME280;56325;47.030;18.518;2023-06-14T05:34:23;100224.34;;;17.60;68.48
69214;BME280;56325;47.030;18.518;2023-06-14T05:36:58;100219.53;;;17.61;68.67
69214;BME280;56325;47.030;18.518;2023-06-14T05:39:33;100232.66;;;17.83;68.06
69214;BME280;56325;47.030;18.518;2023-06-14T05:42:08;100231.38;;;17.95;67.62
69214;BME280;56325;47.030;18.518;2023-06-14T05:44:42;100235.94;;;17.92;67.92
69214;BME280;56325;47.030;18.518;2023-06-14T05:47:19;100231.16;;;17.82;68.30
69214;BME280;56325;47.030;18.518;2023-06-14T05:49:55;100231.13;;;17.93;68.14
69214;BME280;56325;47.030;18.518;2023-06-14T05:52:29;100225.09;;;17.78;69.29
69214;BME280;56325;47.030;18.518;2023-06-14T05:55:05;100229.66;;;17.58;69.26
69214;BME280;56325;47.030;18.518;2023-06-14T05:57:40;100228.13;;;17.46;69.92
69214;BME280;56325;47.030;18.518;2023-06-14T06:02:59;100228.31;;;18.04;68.21
69214;BME280;56325;47.030;18.518;2023-06-14T06:05:35;100228.31;;;18.04;68.21
69214;BME280;56325;47.030;18.518;2023-06-14T06:08:09;100231.69;;;17.41;70.09
69214;BME280;56325;47.030;18.518;2023-06-14T06:10:44;100243.06;;;17.43;70.77
69214;BME280;56325;47.030;18.518;2023-06-14T06:13:18;100239.00;;;17.44;71.38
69214;BME280;56325;47.030;18.518;2023-06-14T06:15:53;100250.13;;;17.61;70.95
69214;BME280;56325;47.030;18.518;2023-06-14T06:18:30;100247.59;;;17.63;70.21
69214;BME280;56325;47.030;18.518;2023-06-14T06:21:06;100240.00;;;17.63;70.36
69214;BME280;56325;47.030;18.518;2023-06-14T06:23:40;100243.00;;;17.99;70.13
69214;BME280;56325;47.030;18.518;2023-06-14T06:26:15;100245.44;;;18.25;69.53
69214;BME280;56325;47.030;18.518;2023-06-14T06:28:50;100238.31;;;18.35;69.31
69214;BME280;56325;47.030;18.518;2023-06-14T06:31:25;100234.13;;;18.70;68.52
69214;BME280;56325;47.030;18.518;2023-06-14T06:34:02;100241.34;;;18.89;68.44
69214;BME280;56325;47.030;18.518;2023-06-14T06:36:36;100237.06;;;18.83;68.01
69214;BME280;56325;47.030;18.518;2023-06-14T06:39:11;100241.50;;;19.03;67.97
69214;BME280;56325;47.030;18.518;2023-06-14T06:41:46;100249.44;;;18.93;68.03
69214;BME280;56325;47.030;18.518;2023-06-14T06:44:24;100245.22;;;19.11;67.59
69214;BME280;56325;47.030;18.518;2023-06-14T06:46:59;100244.37;;;19.21;66.21
69214;BME280;56325;47.030;18.518;2023-06-14T06:49:35;100246.81;;;19.36;65.39
69214;BME280;56325;47.030;18.518;2023-06-14T06:52:10;100248.56;;;19.39;65.90
69214;BME280;56325;47.030;18.518;2023-06-14T06:54:44;100254.09;;;19.45;66.04
69214;BME280;56325;47.030;18.518;2023-06-14T06:57:19;100246.75;;;19.42;63.29
69214;BME280;56325;47.030;18.518;2023-06-14T06:59:53;100245.97;;;19.11;62.69
69214;BME280;56325;47.030;18.518;2023-06-14T07:02:28;100244.75;;;19.07;62.59
69214;BME280;56325;47.030;18.518;2023-06-14T07:05:05;100248.13;;;18.99;62.87
69214;BME280;56325;47.030;18.518;2023-06-14T07:07:40;100244.75;;;19.07;62.86
69214;BME280;56325;47.030;18.518;2023-06-14T07:10:15;100242.97;;;19.09;62.66
69214;BME280;56325;47.030;18.518;2023-06-14T07:12:49;100246.75;;;19.12;63.00
69214;BME280;56325;47.030;18.518;2023-06-14T07:15:24;100242.69;;;19.13;63.44
69214;BME280;56325;47.030;18.518;2023-06-14T07:17:59;100253.41;;;19.69;68.86
69214;BME280;56325;47.030;18.518;2023-06-14T07:20:35;100243.63;;;20.05;68.65
69214;BME280;56325;47.030;18.518;2023-06-14T07:23:11;100240.03;;;20.29;67.91
69214;BME280;56325;47.030;18.518;2023-06-14T07:25:45;100243.75;;;20.37;64.20
69214;BME280;56325;47.030;18.518;2023-06-14T07:28:20;100245.16;;;19.82;61.05
69214;BME280;56325;47.030;18.518;2023-06-14T07:30:54;100245.38;;;19.84;62.05
69214;BME280;56325;47.030;18.518;2023-06-14T07:33:29;100246.87;;;19.60;62.29
69214;BME280;56325;47.030;18.518;2023-06-14T07:36:05;100251.47;;;19.58;62.54
69214;BME280;56325;47.030;18.518;2023-06-14T07:38:40;100262.91;;;19.54;61.52
69214;BME280;56325;47.030;18.518;2023-06-14T07:41:14;100258.75;;;19.67;61.63
69214;BME280;56325;47.030;18.518;2023-06-14T07:43:49;100267.44;;;19.57;61.79
69214;BME280;56325;47.030;18.518;2023-06-14T07:46:23;100269.00;;;19.53;61.35
69214;BME280;56325;47.030;18.518;2023-06-14T07:48:58;100269.75;;;19.53;59.66
69214;BME280;56325;47.030;18.518;2023-06-14T07:51:34;100277.44;;;19.42;61.36
69214;BME280;56325;47.030;18.518;2023-06-14T07:54:09;100278.91;;;19.48;60.97
69214;BME280;56325;47.030;18.518;2023-06-14T07:56:44;100270.03;;;19.50;59.52
69214;BME280;56325;47.030;18.518;2023-06-14T07:59:19;100278.44;;;19.44;59.81
69214;BME280;56325;47.030;18.518;2023-06-14T08:01:53;100280.19;;;19.47;60.64
69214;BME280;56325;47.030;18.518;2023-06-14T08:04:28;100271.78;;;19.53;60.75
69214;BME280;56325;47.030;18.518;2023-06-14T08:07:04;100278.03;;;19.64;61.32
69214;BME280;56325;47.030;18.518;2023-06-14T08:09:40;100288.53;;;19.47;61.57
69214;BME280;56325;47.030;18.518;2023-06-14T08:12:14;100282.53;;;19.38;60.37
69214;BME280;56325;47.030;18.518;2023-06-14T08:14:49;100293.03;;;19.61;60.64
69214;BME280;56325;47.030;18.518;2023-06-14T08:17:44;100290.00;;;19.59;61.58
69214;BME280;56325;47.030;18.518;2023-06-14T08:20:19;100293.16;;;19.39;60.69
69214;BME280;56325;47.030;18.518;2023-06-14T08:22:55;100292.13;;;19.42;61.01
69214;BME280;56325;47.030;18.518;2023-06-14T08:25:30;100303.03;;;19.76;60.70
69214;BME280;56325;47.030;18.518;2023-06-14T08:28:04;100301.91;;;19.90;60.91
69214;BME280;56325;47.030;18.518;2023-06-14T08:30:40;100306.53;;;20.06;61.51
69214;BME280;56325;47.030;18.518;2023-06-14T08:33:15;100296.75;;;20.18;59.24
69214;BME280;56325;47.030;18.518;2023-06-14T08:35:50;100305.72;;;20.11;59.89
69214;BME280;56325;47.030;18.518;2023-06-14T11:39:26;100229.69;;;25.88;36.56
69214;BME280;56325;47.030;18.518;2023-06-14T11:42:01;100229.69;;;25.88;36.56
69214;BME280;56325;47.030;18.518;2023-06-14T11:44:36;100239.09;;;25.83;37.83
69214;BME280;56325;47.030;18.518;2023-06-14T11:47:11;100230.81;;;25.92;35.87
69214;BME280;56325;47.030;18.518;2023-06-14T11:49:46;100235.59;;;26.14;36.95
69214;BME280;56325;47.030;18.518;2023-06-14T11:52:21;100227.81;;;25.37;37.97
69214;BME280;56325;47.030;18.518;2023-06-14T11:54:58;100234.13;;;24.84;37.04
69214;BME280;56325;47.030;18.518;2023-06-14T11:57:34;100239.38;;;24.88;37.09
69214;BME280;56325;47.030;18.518;2023-06-14T12:00:10;100236.56;;;24.80;37.06
69214;BME280;56325;47.030;18.518;2023-06-14T12:02:54;100237.06;;;24.63;36.55
69214;BME280;56325;47.030;18.518;2023-06-14T12:05:30;100239.38;;;24.80;37.52
69214;BME280;56325;47.030;18.518;2023-06-14T12:08:06;100240.56;;;25.15;37.52
69214;BME280;56325;47.030;18.518;2023-06-14T12:10:43;100241.72;;;25.12;37.15
69214;BME280;56325;47.030;18.518;2023-06-14T12:13:18;100235.12;;;25.55;36.47
69214;BME280;56325;47.030;18.518;2023-06-14T12:15:56;100237.41;;;25.72;38.00
69214;BME280;56325;47.030;18.518;2023-06-14T12:18:35;100229.28;;;25.99;34.46
69214;BME280;56325;47.030;18.518;2023-06-14T12:21:10;100220.31;;;25.77;34.95
69214;BME280;56325;47.030;18.518;2023-06-14T12:23:45;100227.81;;;25.37;33.71
69214;BME280;56325;47.030;18.518;2023-06-14T12:26:24;100237.19;;;25.09;33.83
69214;BME280;56325;47.030;18.518;2023-06-14T12:28:59;100232.12;;;25.07;35.71
69214;BME280;56325;47.030;18.518;2023-06-14T12:31:34;100230.44;;;24.97;35.52
69214;BME280;56325;47.030;18.518;2023-06-14T12:34:09;100237.22;;;24.58;37.50
69214;BME280;56325;47.030;18.518;2023-06-14T12:36:44;100232.31;;;24.50;37.50
69214;BME280;56325;47.030;18.518;2023-06-14T12:39:19;100234.59;;;24.52;37.36
69214;BME280;56325;47.030;18.518;2023-06-14T12:41:55;100239.16;;;24.27;39.44
69214;BME280;56325;47.030;18.518;2023-06-14T12:44:30;100230.31;;;24.66;37.63
69214;BME280;56325;47.030;18.518;2023-06-14T12:47:07;100229.63;;;24.81;38.78
69214;BME280;56325;47.030;18.518;2023-06-14T12:49:41;100228.00;;;25.01;35.10
69214;BME280;56325;47.030;18.518;2023-06-14T12:52:16;100231.13;;;24.90;39.44
69214;BME280;56325;47.030;18.518;2023-06-14T12:54:50;100236.38;;;24.86;37.22
69214;BME280;56325;47.030;18.518;2023-06-14T12:57:27;100224.78;;;24.38;36.98
69214;BME280;56325;47.030;18.518;2023-06-14T13:00:01;100222.00;;;24.45;38.21
69214;BME280;56325;47.030;18.518;2023-06-14T13:02:36;100227.66;;;24.53;38.61
69214;BME280;56325;47.030;18.518;2023-06-14T13:05:10;100231.62;;;24.22;37.75
69214;BME280;56325;47.030;18.518;2023-06-14T13:07:45;100224.34;;;23.90;39.09
69214;BME280;56325;47.030;18.518;2023-06-14T13:10:20;100220.28;;;23.99;40.06
69214;BME280;56325;47.030;18.518;2023-06-14T13:12:56;100219.31;;;23.96;42.26
69214;BME280;56325;47.030;18.518;2023-06-14T13:15:33;100223.63;;;23.97;40.58
69214;BME280;56325;47.030;18.518;2023-06-14T13:18:08;100209.63;;;24.05;40.13
69214;BME280;56325;47.030;18.518;2023-06-14T13:20:42;100215.25;;;24.05;39.82
69214;BME280;56325;47.030;18.518;2023-06-14T13:23:17;100218.62;;;23.75;40.45
69214;BME280;56325;47.030;18.518;2023-06-14T13:25:51;100220.28;;;23.70;41.19
69214;BME280;56325;47.030;18.518;2023-06-14T13:28:27;100215.22;;;23.69;43.19
69214;BME280;56325;47.030;18.518;2023-06-14T13:31:03;100229.19;;;23.40;42.66
69214;BME280;56325;47.030;18.518;2023-06-14T13:33:37;100223.44;;;23.46;43.39
69214;BME280;56325;47.030;18.518;2023-06-14T13:36:12;100218.56;;;23.46;43.02
69214;BME280;56325;47.030;18.518;2023-06-14T13:38:47;100220.72;;;23.33;42.80
69214;BME280;56325;47.030;18.518;2023-06-14T13:41:21;100215.75;;;23.18;42.47
69214;BME280;56325;47.030;18.518;2023-06-14T13:43:57;100225.38;;;23.09;42.78
69214;BME280;56325;47.030;18.518;2023-06-14T13:46:32;100221.00;;;23.01;42.84
69214;BME280;56325;47.030;18.518;2023-06-14T13:49:07;100222.78;;;22.77;42.87
69214;BME280;56325;47.030;18.518;2023-06-14T13:51:42;100225.50;;;22.70;44.71
69214;BME280;56325;47.030;18.518;2023-06-14T13:54:19;100225.25;;;22.47;44.64
69214;BME280;56325;47.030;18.518;2023-06-14T13:56:54;100222.72;;;22.56;45.78
69214;BME280;56325;47.030;18.518;2023-06-14T13:59:30;100225.50;;;22.36;45.24
69214;BME280;56325;47.030;18.518;2023-06-14T14:03:26;100217.31;;;22.72;46.20
69214;BME280;56325;47.030;18.518;2023-06-14T14:06:01;100217.31;;;22.72;46.20
69214;BME280;56325;47.030;18.518;2023-06-14T14:08:36;100230.47;;;22.16;47.13
69214;BME280;56325;47.030;18.518;2023-06-14T14:11:12;100220.56;;;22.15;47.60
69214;BME280;56325;47.030;18.518;2023-06-14T14:13:49;100210.66;;;22.14;47.93
69214;BME280;56325;47.030;18.518;2023-06-14T14:16:23;100219.91;;;22.09;47.66
69214;BME280;56325;47.030;18.518;2023-06-14T14:19:00;100208.47;;;21.94;48.19
69214;BME280;56325;47.030;18.518;2023-06-14T14:21:35;100219.69;;;21.94;48.80
69214;BME280;56325;47.030;18.518;2023-06-14T14:24:10;100224.75;;;22.09;52.79
69214;BME280;56325;47.030;18.518;2023-06-14T14:26:45;100218.06;;;22.25;51.90
69214;BME280;56325;47.030;18.518;2023-06-14T14:29:21;100213.69;;;22.03;51.08
69214;BME280;56325;47.030;18.518;2023-06-14T14:32:00;100219.69;;;22.20;50.62
69214;BME280;56325;47.030;18.518;2023-06-14T14:34:36;100222.06;;;22.03;50.33
69214;BME280;56325;47.030;18.518;2023-06-14T14:37:10;100208.06;;;22.03;49.74
69214;BME280;56325;47.030;18.518;2023-06-14T14:39:46;100218.41;;;22.21;49.75
69214;BME280;56325;47.030;18.518;2023-06-14T14:42:20;100209.78;;;22.33;49.41
69214;BME280;56325;47.030;18.518;2023-06-14T14:44:55;100211.41;;;22.62;49.59
69214;BME280;56325;47.030;18.518;2023-06-14T14:47:30;100213.53;;;22.69;49.51
69214;BME280;56325;47.030;18.518;2023-06-14T14:50:06;100214.38;;;22.43;48.47
69214;BME280;56325;47.030;18.518;2023-06-14T14:52:42;100210.44;;;22.60;48.95
69214;BME280;56325;47.030;18.518;2023-06-14T14:55:17;100214.00;;;22.13;49.20
69214;BME280;56325;47.030;18.518;2023-06-14T14:57:52;100215.28;;;22.12;49.57
69214;BME280;56325;47.030;18.518;2023-06-14T15:00:26;100222.91;;;21.98;49.58
69214;BME280;56325;47.030;18.518;2023-06-14T15:03:01;100213.31;;;21.80;49.13
69214;BME280;56325;47.030;18.518;2023-06-14T15:05:37;100217.50;;;21.74;49.36
69214;BME280;56325;47.030;18.518;2023-06-14T15:08:12;100213.00;;;21.97;49.43
69214;BME280;56325;47.030;18.518;2023-06-14T15:10:46;100213.13;;;21.65;49.87
69214;BME280;56325;47.030;18.518;2023-06-14T15:13:21;100212.78;;;21.69;50.08
69214;BME280;56325;47.030;18.518;2023-06-14T15:15:56;100210.31;;;21.65;50.32
69214;BME280;56325;47.030;18.518;2023-06-14T15:18:31;100207.53;;;21.65;50.72
69214;BME280;56325;47.030;18.518;2023-06-14T15:21:07;100211.19;;;21.60;50.27
69214;BME280;56325;47.030;18.518;2023-06-14T15:23:42;100205.78;;;21.62;50.78
69214;BME280;56325;47.030;18.518;2023-06-14T15:26:16;100199.87;;;21.79;51.23
69214;BME280;56325;47.030;18.518;2023-06-14T15:28:51;100201.72;;;21.63;50.92
69214;BME280;56325;47.030;18.518;2023-06-14T15:31:25;100203.97;;;21.65;50.77
69214;BME280;56325;47.030;18.518;2023-06-14T15:34:02;100201.69;;;21.76;50.82
69214;BME280;56325;47.030;18.518;2023-06-14T15:36:38;100197.81;;;21.79;50.72
69214;BME280;56325;47.030;18.518;2023-06-14T15:39:13;100206.84;;;21.46;51.43
69214;BME280;56325;47.030;18.518;2023-06-14T15:41:47;100200.19;;;21.62;52.01
69214;BME280;56325;47.030;18.518;2023-06-14T15:44:23;100208.91;;;21.58;51.48
69214;BME280;56325;47.030;18.518;2023-06-14T15:46:57;100208.91;;;21.58;51.46
69214;BME280;56325;47.030;18.518;2023-06-14T15:49:32;100206.78;;;21.65;52.24
69214;BME280;56325;47.030;18.518;2023-06-14T15:52:08;100213.31;;;21.93;53.20
69214;BME280;56325;47.030;18.518;2023-06-14T15:54:43;100198.78;;;22.21;52.18
69214;BME280;56325;47.030;18.518;2023-06-14T15:57:17;100201.56;;;23.03;49.41
69214;BME280;56325;47.030;18.518;2023-06-14T15:59:52;100206.56;;;22.97;48.69
69214;BME280;56325;47.030;18.518;2023-06-14T16:02:26;100205.34;;;22.71;49.19
69214;BME280;56325;47.030;18.518;2023-06-14T16:05:01;100209.41;;;22.83;49.00
69214;BME280;56325;47.030;18.518;2023-06-14T16:07:37;100212.69;;;22.61;51.57
69214;BME280;56325;47.030;18.518;2023-06-14T16:10:12;100215.81;;;22.23;50.72
69214;BME280;56325;47.030;18.518;2023-06-14T16:12:47;100213.44;;;22.01;51.24
69214;BME280;56325;47.030;18.518;2023-06-14T16:15:22;100215.59;;;21.95;51.59
69214;BME280;56325;47.030;18.518;2023-06-14T16:17:56;100218.09;;;22.12;52.04
69214;BME280;56325;47.030;18.518;2023-06-14T16:20:31;100227.13;;;22.18;51.20
69214;BME280;56325;47.030;18.518;2023-06-14T16:23:07;100213.34;;;22.54;49.81
69214;BME280;56325;47.030;18.518;2023-06-14T16:25:42;100206.09;;;23.27;47.95
69214;BME280;56325;47.030;18.518;2023-06-14T16:28:16;100212.41;;;23.69;47.03
69214;BME280;56325;47.030;18.518;2023-06-14T16:30:51;100209.00;;;23.91;46.42
69214;BME280;56325;47.030;18.518;2023-06-14T16:33:25;100208.16;;;24.11;45.39
69214;BME280;56325;47.030;18.518;2023-06-14T16:36:00;100203.66;;;24.52;43.97
69214;BME280;56325;47.030;18.518;2023-06-14T16:38:36;100205.09;;;24.38;44.40
69214;BME280;56325;47.030;18.518;2023-06-14T16:41:11;100212.03;;;24.01;44.88
69214;BME280;56325;47.030;18.518;2023-06-14T16:43:46;100213.59;;;24.09;45.07
69214;BME280;56325;47.030;18.518;2023-06-14T16:46:27;100223.59;;;23.19;46.27
69214;BME280;56325;47.030;18.518;2023-06-14T16:49:03;100218.78;;;23.48;45.51
69214;BME280;56325;47.030;18.518;2023-06-14T16:51:38;100225.25;;;24.21;45.23
69214;BME280;56325;47.030;18.518;2023-06-14T16:54:13;100223.56;;;24.62;44.55
69214;BME280;56325;47.030;18.518;2023-06-14T16:56:48;100221.69;;;24.64;44.05
69214;BME280;56325;47.030;18.518;2023-06-14T16:59:24;100226.81;;;24.81;43.88
69214;BME280;56325;47.030;18.518;2023-06-14T17:02:01;100238.50;;;24.49;42.81
69214;BME280;56325;47.030;18.518;2023-06-14T17:04:38;100236.97;;;24.40;43.74
69214;BME280;56325;47.030;18.518;2023-06-14T17:07:12;100237.75;;;24.48;44.55
69214;BME280;56325;47.030;18.518;2023-06-14T17:09:48;100249.75;;;24.49;44.45
69214;BME280;56325;47.030;18.518;2023-06-14T17:12:23;100252.75;;;24.51;45.45